Terminal Aerodrome Forecast
Issued by NWS

Home | Current Version | Previous Version | Text Only | Print | Product List | Glossary On
Versions: 1 2 3 4 5 6 7 8 9 10 11 12 13 14 15 16 17 18
059
FTUS41 KCAR 072320
TAFBHB
TAF
KBHB 072320Z 0800/0824 02008KT P6SM FEW130
     FM081500 04016KT P6SM BKN100
     FM081700 03016KT 6SM -SN BKN080
     FM082100 03017G24KT 1SM -SN BLSN OVC015
      AMD LTD TO CLD VIS AND WIND=

USA.gov is the U.S. government's official web portal to all federal, state and local government web resources and services.